Aérodrome :
LOGIN :

S'inscrire | Disclaimer

   EN    FR    IT 

 










Légende :    VFR   VFR Marginal   IFR   IFR Intensif   IFR Très Intensif
Visi : 
Plafond : 
>= 8 km
>= 3000ft
5 à 8 km
1000 à 3000 ft
1500m à 5 km
500 à 1000 ft
800 à 1500m
200 à 500 ft
< 800m
< 200 ft
Symboles :   Orages  Brouillard  Fortes neiges  Fortes précipitations  Vent > 20 kt
SIGMETs :   Divers  Orages  Givrage  Turbulence  Onde Orograph.  Cendres Volcan.






- Altitude de l'aérodrome : 364 ft


LFAQ - Albert Bray

DERNIER METAR :
  • 282230Z AUTO 19011KT 9999 BKN021 OVC033 08/06 Q1017

METARs EXPIRÉS :
  • 282200Z AUTO 19011KT 9999 OVC031 08/06 Q1018
  • 282130Z AUTO 19010KT 9999 BKN028 BKN033 OVC080 08/06 Q1018
  • 282100Z AUTO 19012KT 9999 FEW032 BKN078 OVC098 08/06 Q1018
  • 282030Z AUTO 19011KT CAVOK 07/05 Q1018
  • 282000Z AUTO 18010KT CAVOK 07/05 Q1019
  • 281930Z AUTO 18008KT CAVOK 07/05 Q1019
  • 281900Z AUTO 18007KT CAVOK 07/05 Q1020
  • 281830Z AUTO 18008KT 9999 FEW019 08/06 Q1020 TEMPO 2500 RADZ BKN008
  • 281800Z AUTO 18008KT 9999 SCT018 BKN037 OVC120 08/06 Q1020 BECMG OVC012

TAF AMD TAF LFAQ
Valide du 28 à 18h jusqu'au 29 à 00h UTC


281827Z 2818/2824 19013KT 9999 SCT030
BECMG 2820/2823 OVC013
TEMPO 2823/2824 2000 RADZ BKN004 BKN007



MET'MAP, la Météo Aéronautique d'un coup d'oeil ! - Copyright ORBIFLY Décembre 2007 - Disclaimer

ORBIFLY MET'MAP TEAM :

Programmation & Développement : Alexandra Zaïnal
Sur une idée originale de : Baudouin d'Aumeries
Soutien technique & logistique : Manuel Goepfert
Assistance : Marc-Olivier Méhu




SOURCES & CREDITS :

   NOAA